sensor_id;sensor_type;location;lat;lon;timestamp;P1;durP1;ratioP1;P2;durP2;ratioP2
43670;SDS011;29267;50.906;7.248;2022-07-23T00:00:48;24.52;;;16.90;;
43670;SDS011;29267;50.906;7.248;2022-07-23T00:03:14;24.83;;;17.33;;
43670;SDS011;29267;50.906;7.248;2022-07-23T00:05:40;25.00;;;17.25;;
43670;SDS011;29267;50.906;7.248;2022-07-23T00:08:07;23.38;;;16.80;;
43670;SDS011;29267;50.906;7.248;2022-07-23T00:10:34;31.95;;;18.92;;
43670;SDS011;29267;50.906;7.248;2022-07-23T00:13:00;24.13;;;17.27;;
43670;SDS011;29267;50.906;7.248;2022-07-23T00:15:25;25.80;;;17.15;;
43670;SDS011;29267;50.906;7.248;2022-07-23T00:17:51;24.65;;;18.30;;
43670;SDS011;29267;50.906;7.248;2022-07-23T00:20:17;23.75;;;17.10;;
43670;SDS011;29267;50.906;7.248;2022-07-23T00:22:49;23.75;;;17.13;;
43670;SDS011;29267;50.906;7.248;2022-07-23T00:25:16;22.02;;;15.00;;
43670;SDS011;29267;50.906;7.248;2022-07-23T00:27:41;25.38;;;17.50;;
43670;SDS011;29267;50.906;7.248;2022-07-23T00:30:07;25.95;;;19.10;;
43670;SDS011;29267;50.906;7.248;2022-07-23T00:32:47;26.70;;;19.23;;
43670;SDS011;29267;50.906;7.248;2022-07-23T00:35:13;22.80;;;16.95;;
43670;SDS011;29267;50.906;7.248;2022-07-23T00:37:39;25.33;;;16.98;;
43670;SDS011;29267;50.906;7.248;2022-07-23T00:40:05;27.55;;;16.67;;
43670;SDS011;29267;50.906;7.248;2022-07-23T00:42:32;27.80;;;17.67;;
43670;SDS011;29267;50.906;7.248;2022-07-23T00:44:57;24.00;;;17.83;;
43670;SDS011;29267;50.906;7.248;2022-07-23T00:47:23;27.85;;;19.45;;
43670;SDS011;29267;50.906;7.248;2022-07-23T00:49:49;27.92;;;17.45;;
43670;SDS011;29267;50.906;7.248;2022-07-23T00:52:14;22.52;;;17.00;;
43670;SDS011;29267;50.906;7.248;2022-07-23T00:54:40;27.70;;;19.52;;
43670;SDS011;29267;50.906;7.248;2022-07-23T00:57:06;27.90;;;18.77;;
43670;SDS011;29267;50.906;7.248;2022-07-23T00:59:32;23.77;;;18.52;;
43670;SDS011;29267;50.906;7.248;2022-07-23T01:01:57;31.92;;;20.52;;
43670;SDS011;29267;50.906;7.248;2022-07-23T01:04:23;27.80;;;19.63;;
43670;SDS011;29267;50.906;7.248;2022-07-23T01:06:49;27.67;;;19.55;;
43670;SDS011;29267;50.906;7.248;2022-07-23T01:09:14;29.05;;;19.73;;
43670;SDS011;29267;50.906;7.248;2022-07-23T01:11:40;27.80;;;18.35;;
43670;SDS011;29267;50.906;7.248;2022-07-23T01:14:13;27.02;;;18.38;;
43670;SDS011;29267;50.906;7.248;2022-07-23T01:16:40;32.75;;;20.73;;
43670;SDS011;29267;50.906;7.248;2022-07-23T01:19:07;28.98;;;19.33;;
43670;SDS011;29267;50.906;7.248;2022-07-23T01:22:07;31.13;;;20.63;;
43670;SDS011;29267;50.906;7.248;2022-07-23T01:24:26;30.08;;;20.88;;
43670;SDS011;29267;50.906;7.248;2022-07-23T01:26:52;31.35;;;19.63;;
43670;SDS011;29267;50.906;7.248;2022-07-23T01:29:18;31.85;;;19.60;;
43670;SDS011;29267;50.906;7.248;2022-07-23T01:31:46;29.25;;;19.65;;
43670;SDS011;29267;50.906;7.248;2022-07-23T01:34:11;27.27;;;19.13;;
43670;SDS011;29267;50.906;7.248;2022-07-23T01:36:37;27.05;;;19.60;;
43670;SDS011;29267;50.906;7.248;2022-07-23T01:39:03;26.88;;;19.80;;
43670;SDS011;29267;50.906;7.248;2022-07-23T01:41:30;28.90;;;20.05;;
43670;SDS011;29267;50.906;7.248;2022-07-23T01:43:56;29.95;;;18.40;;
43670;SDS011;29267;50.906;7.248;2022-07-23T01:46:21;27.58;;;18.48;;
43670;SDS011;29267;50.906;7.248;2022-07-23T01:48:47;25.67;;;18.60;;
43670;SDS011;29267;50.906;7.248;2022-07-23T01:51:13;31.15;;;18.75;;
43670;SDS011;29267;50.906;7.248;2022-07-23T01:53:39;27.00;;;19.65;;
43670;SDS011;29267;50.906;7.248;2022-07-23T01:56:04;28.58;;;20.25;;
43670;SDS011;29267;50.906;7.248;2022-07-23T01:58:30;28.75;;;18.05;;
43670;SDS011;29267;50.906;7.248;2022-07-23T02:00:56;28.98;;;20.23;;
43670;SDS011;29267;50.906;7.248;2022-07-23T02:03:22;30.70;;;20.95;;
43670;SDS011;29267;50.906;7.248;2022-07-23T02:05:48;27.92;;;19.35;;
43670;SDS011;29267;50.906;7.248;2022-07-23T02:08:14;32.53;;;21.13;;
43670;SDS011;29267;50.906;7.248;2022-07-23T02:10:40;27.35;;;19.17;;
43670;SDS011;29267;50.906;7.248;2022-07-23T02:13:05;27.95;;;19.60;;
43670;SDS011;29267;50.906;7.248;2022-07-23T02:15:31;27.75;;;19.65;;
43670;SDS011;29267;50.906;7.248;2022-07-23T02:17:58;28.65;;;19.75;;
43670;SDS011;29267;50.906;7.248;2022-07-23T02:20:23;31.35;;;19.90;;
43670;SDS011;29267;50.906;7.248;2022-07-23T02:22:49;40.25;;;21.15;;
43670;SDS011;29267;50.906;7.248;2022-07-23T02:25:15;38.63;;;22.42;;
43670;SDS011;29267;50.906;7.248;2022-07-23T02:27:40;36.65;;;21.35;;
43670;SDS011;29267;50.906;7.248;2022-07-23T02:30:06;32.13;;;21.50;;
43670;SDS011;29267;50.906;7.248;2022-07-23T02:32:32;32.80;;;21.13;;
43670;SDS011;29267;50.906;7.248;2022-07-23T02:34:58;35.15;;;21.20;;
43670;SDS011;29267;50.906;7.248;2022-07-23T02:37:24;28.45;;;20.52;;
43670;SDS011;29267;50.906;7.248;2022-07-23T02:39:49;36.90;;;22.63;;
43670;SDS011;29267;50.906;7.248;2022-07-23T02:42:15;34.20;;;21.95;;
43670;SDS011;29267;50.906;7.248;2022-07-23T02:44:41;36.67;;;23.13;;
43670;SDS011;29267;50.906;7.248;2022-07-23T02:47:06;34.00;;;22.58;;
43670;SDS011;29267;50.906;7.248;2022-07-23T02:49:32;36.92;;;21.73;;
43670;SDS011;29267;50.906;7.248;2022-07-23T02:51:58;34.58;;;23.95;;
43670;SDS011;29267;50.906;7.248;2022-07-23T02:54:23;35.90;;;22.50;;
43670;SDS011;29267;50.906;7.248;2022-07-23T02:56:49;32.60;;;22.23;;
43670;SDS011;29267;50.906;7.248;2022-07-23T02:59:18;36.20;;;22.83;;
43670;SDS011;29267;50.906;7.248;2022-07-23T03:01:43;34.35;;;23.50;;
43670;SDS011;29267;50.906;7.248;2022-07-23T03:04:10;33.53;;;21.58;;
43670;SDS011;29267;50.906;7.248;2022-07-23T03:06:35;33.72;;;23.20;;
43670;SDS011;29267;50.906;7.248;2022-07-23T03:09:01;29.58;;;20.85;;
43670;SDS011;29267;50.906;7.248;2022-07-23T03:11:28;29.75;;;20.20;;
43670;SDS011;29267;50.906;7.248;2022-07-23T03:13:53;28.50;;;19.88;;
43670;SDS011;29267;50.906;7.248;2022-07-23T03:16:19;35.47;;;23.23;;
43670;SDS011;29267;50.906;7.248;2022-07-23T03:18:45;33.47;;;20.63;;
43670;SDS011;29267;50.906;7.248;2022-07-23T03:21:10;29.65;;;19.90;;
43670;SDS011;29267;50.906;7.248;2022-07-23T03:23:36;30.33;;;20.95;;
43670;SDS011;29267;50.906;7.248;2022-07-23T03:26:01;33.42;;;21.75;;
43670;SDS011;29267;50.906;7.248;2022-07-23T03:28:28;31.25;;;20.92;;
43670;SDS011;29267;50.906;7.248;2022-07-23T03:30:54;31.55;;;21.25;;
43670;SDS011;29267;50.906;7.248;2022-07-23T03:33:19;36.63;;;22.70;;
43670;SDS011;29267;50.906;7.248;2022-07-23T03:35:46;35.33;;;20.95;;
43670;SDS011;29267;50.906;7.248;2022-07-23T03:38:12;28.52;;;20.88;;
43670;SDS011;29267;50.906;7.248;2022-07-23T03:40:38;36.55;;;21.27;;
43670;SDS011;29267;50.906;7.248;2022-07-23T03:43:04;31.30;;;19.10;;
43670;SDS011;29267;50.906;7.248;2022-07-23T03:45:31;30.95;;;19.75;;
43670;SDS011;29267;50.906;7.248;2022-07-23T03:47:57;32.05;;;20.15;;
43670;SDS011;29267;50.906;7.248;2022-07-23T03:50:22;31.10;;;19.88;;
43670;SDS011;29267;50.906;7.248;2022-07-23T03:52:48;29.33;;;20.25;;
43670;SDS011;29267;50.906;7.248;2022-07-23T03:55:14;34.63;;;19.70;;
43670;SDS011;29267;50.906;7.248;2022-07-23T03:57:40;31.23;;;21.05;;
43670;SDS011;29267;50.906;7.248;2022-07-23T04:00:07;31.40;;;19.73;;
43670;SDS011;29267;50.906;7.248;2022-07-23T04:02:38;36.97;;;21.40;;
43670;SDS011;29267;50.906;7.248;2022-07-23T04:05:04;27.52;;;17.88;;
43670;SDS011;29267;50.906;7.248;2022-07-23T04:07:30;29.20;;;19.80;;
43670;SDS011;29267;50.906;7.248;2022-07-23T04:09:56;29.27;;;19.05;;
43670;SDS011;29267;50.906;7.248;2022-07-23T04:12:22;30.42;;;19.25;;
43670;SDS011;29267;50.906;7.248;2022-07-23T04:14:47;29.77;;;18.90;;
43670;SDS011;29267;50.906;7.248;2022-07-23T04:17:13;33.95;;;20.48;;
43670;SDS011;29267;50.906;7.248;2022-07-23T04:19:39;31.75;;;20.33;;
43670;SDS011;29267;50.906;7.248;2022-07-23T04:22:06;29.40;;;17.75;;
43670;SDS011;29267;50.906;7.248;2022-07-23T04:24:32;28.73;;;19.15;;
43670;SDS011;29267;50.906;7.248;2022-07-23T04:26:58;29.08;;;18.63;;
43670;SDS011;29267;50.906;7.248;2022-07-23T04:29:24;33.40;;;18.50;;
43670;SDS011;29267;50.906;7.248;2022-07-23T04:31:49;28.40;;;18.80;;
43670;SDS011;29267;50.906;7.248;2022-07-23T04:34:16;29.88;;;19.35;;
43670;SDS011;29267;50.906;7.248;2022-07-23T04:36:42;28.08;;;20.27;;
43670;SDS011;29267;50.906;7.248;2022-07-23T04:39:08;29.35;;;18.30;;
43670;SDS011;29267;50.906;7.248;2022-07-23T04:41:33;25.65;;;15.27;;
43670;SDS011;29267;50.906;7.248;2022-07-23T04:43:59;24.85;;;15.32;;
43670;SDS011;29267;50.906;7.248;2022-07-23T04:46:26;23.90;;;14.57;;
43670;SDS011;29267;50.906;7.248;2022-07-23T04:48:52;18.90;;;13.55;;
43670;SDS011;29267;50.906;7.248;2022-07-23T04:51:18;16.25;;;11.95;;
43670;SDS011;29267;50.906;7.248;2022-07-23T04:53:44;17.75;;;12.43;;
43670;SDS011;29267;50.906;7.248;2022-07-23T04:56:09;18.05;;;11.73;;
43670;SDS011;29267;50.906;7.248;2022-07-23T04:58:35;16.95;;;11.35;;
43670;SDS011;29267;50.906;7.248;2022-07-23T05:01:01;15.30;;;10.85;;
43670;SDS011;29267;50.906;7.248;2022-07-23T05:03:27;17.80;;;10.55;;
43670;SDS011;29267;50.906;7.248;2022-07-23T05:05:52;14.45;;;9.98;;
43670;SDS011;29267;50.906;7.248;2022-07-23T05:08:18;13.13;;;10.48;;
43670;SDS011;29267;50.906;7.248;2022-07-23T05:10:44;13.20;;;11.13;;
43670;SDS011;29267;50.906;7.248;2022-07-23T05:13:09;17.77;;;11.38;;
43670;SDS011;29267;50.906;7.248;2022-07-23T05:15:35;17.35;;;10.63;;
43670;SDS011;29267;50.906;7.248;2022-07-23T05:18:00;19.27;;;11.02;;
43670;SDS011;29267;50.906;7.248;2022-07-23T05:20:26;17.73;;;11.30;;
43670;SDS011;29267;50.906;7.248;2022-07-23T05:22:52;18.45;;;10.90;;
43670;SDS011;29267;50.906;7.248;2022-07-23T05:25:17;17.23;;;11.50;;
43670;SDS011;29267;50.906;7.248;2022-07-23T05:27:43;18.52;;;10.63;;
43670;SDS011;29267;50.906;7.248;2022-07-23T05:30:09;11.52;;;9.60;;
43670;SDS011;29267;50.906;7.248;2022-07-23T05:32:35;12.75;;;9.95;;
43670;SDS011;29267;50.906;7.248;2022-07-23T05:35:02;14.32;;;9.52;;
43670;SDS011;29267;50.906;7.248;2022-07-23T05:37:28;11.93;;;9.80;;
43670;SDS011;29267;50.906;7.248;2022-07-23T05:39:54;14.18;;;10.48;;
43670;SDS011;29267;50.906;7.248;2022-07-23T05:42:19;12.50;;;10.02;;
43670;SDS011;29267;50.906;7.248;2022-07-23T05:44:45;14.07;;;9.88;;
43670;SDS011;29267;50.906;7.248;2022-07-23T05:47:11;12.55;;;9.52;;
43670;SDS011;29267;50.906;7.248;2022-07-23T05:49:37;14.40;;;9.90;;
43670;SDS011;29267;50.906;7.248;2022-07-23T05:52:06;10.75;;;9.05;;
43670;SDS011;29267;50.906;7.248;2022-07-23T05:54:33;10.45;;;8.55;;
43670;SDS011;29267;50.906;7.248;2022-07-23T05:57:00;13.13;;;9.23;;
43670;SDS011;29267;50.906;7.248;2022-07-23T05:59:26;10.60;;;8.80;;
43670;SDS011;29267;50.906;7.248;2022-07-23T06:01:51;13.30;;;9.65;;
43670;SDS011;29267;50.906;7.248;2022-07-23T06:04:17;10.68;;;9.57;;
43670;SDS011;29267;50.906;7.248;2022-07-23T06:06:43;12.52;;;10.20;;
43670;SDS011;29267;50.906;7.248;2022-07-23T06:09:08;13.50;;;10.05;;
43670;SDS011;29267;50.906;7.248;2022-07-23T06:11:35;11.07;;;8.77;;
43670;SDS011;29267;50.906;7.248;2022-07-23T06:14:01;12.90;;;8.75;;
43670;SDS011;29267;50.906;7.248;2022-07-23T06:16:27;10.43;;;8.10;;
43670;SDS011;29267;50.906;7.248;2022-07-23T06:18:53;13.68;;;9.10;;
43670;SDS011;29267;50.906;7.248;2022-07-23T06:21:18;10.73;;;8.32;;
43670;SDS011;29267;50.906;7.248;2022-07-23T06:23:44;15.88;;;10.02;;
43670;SDS011;29267;50.906;7.248;2022-07-23T06:26:10;12.00;;;8.38;;
43670;SDS011;29267;50.906;7.248;2022-07-23T06:28:35;8.93;;;7.53;;
43670;SDS011;29267;50.906;7.248;2022-07-23T06:31:01;14.77;;;8.57;;
43670;SDS011;29267;50.906;7.248;2022-07-23T06:33:27;11.57;;;7.65;;
43670;SDS011;29267;50.906;7.248;2022-07-23T06:35:52;11.45;;;8.82;;
43670;SDS011;29267;50.906;7.248;2022-07-23T06:38:18;9.90;;;8.15;;
43670;SDS011;29267;50.906;7.248;2022-07-23T06:40:43;10.00;;;7.32;;
43670;SDS011;29267;50.906;7.248;2022-07-23T06:43:10;9.55;;;7.80;;
43670;SDS011;29267;50.906;7.248;2022-07-23T06:45:35;13.18;;;7.72;;
43670;SDS011;29267;50.906;7.248;2022-07-23T06:48:01;9.13;;;7.85;;
43670;SDS011;29267;50.906;7.248;2022-07-23T06:50:28;9.77;;;6.88;;
43670;SDS011;29267;50.906;7.248;2022-07-23T06:52:53;7.72;;;6.70;;
43670;SDS011;29267;50.906;7.248;2022-07-23T06:55:19;8.70;;;6.35;;
43670;SDS011;29267;50.906;7.248;2022-07-23T06:57:45;7.60;;;5.97;;
43670;SDS011;29267;50.906;7.248;2022-07-23T07:00:10;8.65;;;6.68;;
43670;SDS011;29267;50.906;7.248;2022-07-23T07:02:36;7.43;;;6.00;;
43670;SDS011;29267;50.906;7.248;2022-07-23T07:05:02;7.18;;;5.20;;
43670;SDS011;29267;50.906;7.248;2022-07-23T07:07:28;6.20;;;5.25;;
43670;SDS011;29267;50.906;7.248;2022-07-23T07:09:54;5.45;;;4.95;;
43670;SDS011;29267;50.906;7.248;2022-07-23T07:12:20;7.65;;;5.00;;
43670;SDS011;29267;50.906;7.248;2022-07-23T07:14:45;9.15;;;5.13;;
43670;SDS011;29267;50.906;7.248;2022-07-23T07:17:11;5.78;;;4.60;;
43670;SDS011;29267;50.906;7.248;2022-07-23T07:19:37;5.18;;;4.50;;
43670;SDS011;29267;50.906;7.248;2022-07-23T07:22:03;6.85;;;4.40;;
43670;SDS011;29267;50.906;7.248;2022-07-23T07:24:28;5.55;;;4.20;;
43670;SDS011;29267;50.906;7.248;2022-07-23T07:26:54;4.35;;;3.38;;
43670;SDS011;29267;50.906;7.248;2022-07-23T07:29:20;7.25;;;5.20;;
43670;SDS011;29267;50.906;7.248;2022-07-23T07:31:45;6.68;;;4.53;;
43670;SDS011;29267;50.906;7.248;2022-07-23T07:34:11;6.10;;;4.53;;
43670;SDS011;29267;50.906;7.248;2022-07-23T07:36:37;6.55;;;4.68;;
43670;SDS011;29267;50.906;7.248;2022-07-23T07:39:03;7.05;;;5.30;;
43670;SDS011;29267;50.906;7.248;2022-07-23T07:41:30;7.50;;;5.72;;
43670;SDS011;29267;50.906;7.248;2022-07-23T07:43:56;8.80;;;5.78;;
43670;SDS011;29267;50.906;7.248;2022-07-23T07:46:22;6.60;;;5.43;;
43670;SDS011;29267;50.906;7.248;2022-07-23T07:48:49;8.27;;;5.15;;
43670;SDS011;29267;50.906;7.248;2022-07-23T07:51:15;7.97;;;5.72;;
43670;SDS011;29267;50.906;7.248;2022-07-23T07:53:41;9.18;;;5.63;;
43670;SDS011;29267;50.906;7.248;2022-07-23T07:56:07;9.63;;;5.68;;
43670;SDS011;29267;50.906;7.248;2022-07-23T07:58:32;7.47;;;4.80;;
43670;SDS011;29267;50.906;7.248;2022-07-23T08:00:58;8.77;;;4.80;;
43670;SDS011;29267;50.906;7.248;2022-07-23T08:03:25;6.53;;;4.38;;
43670;SDS011;29267;50.906;7.248;2022-07-23T08:05:51;7.10;;;4.30;;
43670;SDS011;29267;50.906;7.248;2022-07-23T08:08:17;7.25;;;4.93;;
43670;SDS011;29267;50.906;7.248;2022-07-23T08:10:43;6.65;;;4.28;;
43670;SDS011;29267;50.906;7.248;2022-07-23T08:13:11;8.27;;;4.75;;
43670;SDS011;29267;50.906;7.248;2022-07-23T08:15:39;7.28;;;4.50;;
43670;SDS011;29267;50.906;7.248;2022-07-23T08:18:06;8.45;;;4.63;;
43670;SDS011;29267;50.906;7.248;2022-07-23T08:20:31;6.65;;;4.95;;
43670;SDS011;29267;50.906;7.248;2022-07-23T08:23:03;8.05;;;4.50;;
43670;SDS011;29267;50.906;7.248;2022-07-23T08:25:38;6.30;;;3.60;;
43670;SDS011;29267;50.906;7.248;2022-07-23T08:28:06;7.90;;;4.20;;
43670;SDS011;29267;50.906;7.248;2022-07-23T08:30:33;6.82;;;4.13;;
43670;SDS011;29267;50.906;7.248;2022-07-23T08:37:58;8.63;;;4.93;;
43670;SDS011;29267;50.906;7.248;2022-07-23T08:40:26;8.40;;;5.00;;
43670;SDS011;29267;50.906;7.248;2022-07-23T08:42:54;6.68;;;4.40;;
43670;SDS011;29267;50.906;7.248;2022-07-23T08:45:21;8.68;;;4.22;;
43670;SDS011;29267;50.906;7.248;2022-07-23T08:47:51;7.75;;;4.53;;
43670;SDS011;29267;50.906;7.248;2022-07-23T08:50:21;8.68;;;5.60;;
43670;SDS011;29267;50.906;7.248;2022-07-23T08:52:49;8.38;;;5.07;;
43670;SDS011;29267;50.906;7.248;2022-07-23T08:55:16;8.38;;;4.45;;
43670;SDS011;29267;50.906;7.248;2022-07-23T08:57:43;8.05;;;3.95;;
43670;SDS011;29267;50.906;7.248;2022-07-23T09:00:10;4.82;;;3.55;;
43670;SDS011;29267;50.906;7.248;2022-07-23T09:02:40;9.25;;;5.35;;
43670;SDS011;29267;50.906;7.248;2022-07-23T09:05:06;7.65;;;4.10;;
43670;SDS011;29267;50.906;7.248;2022-07-23T09:07:33;7.30;;;4.93;;
43670;SDS011;29267;50.906;7.248;2022-07-23T09:10:09;7.25;;;4.25;;
43670;SDS011;29267;50.906;7.248;2022-07-23T09:12:36;9.63;;;3.83;;
43670;SDS011;29267;50.906;7.248;2022-07-23T09:15:03;5.72;;;3.92;;
43670;SDS011;29267;50.906;7.248;2022-07-23T09:17:39;7.18;;;3.67;;
43670;SDS011;29267;50.906;7.248;2022-07-23T09:20:08;5.35;;;3.30;;
43670;SDS011;29267;50.906;7.248;2022-07-23T09:22:47;6.95;;;4.07;;
43670;SDS011;29267;50.906;7.248;2022-07-23T09:27:56;8.65;;;3.47;;
43670;SDS011;29267;50.906;7.248;2022-07-23T09:30:25;7.13;;;3.85;;
43670;SDS011;29267;50.906;7.248;2022-07-23T09:33:05;7.55;;;3.70;;
43670;SDS011;29267;50.906;7.248;2022-07-23T09:38:15;4.63;;;3.47;;
43670;SDS011;29267;50.906;7.248;2022-07-23T09:40:42;5.75;;;3.00;;
43670;SDS011;29267;50.906;7.248;2022-07-23T09:43:08;8.15;;;3.75;;
43670;SDS011;29267;50.906;7.248;2022-07-23T09:45:34;5.65;;;3.35;;
43670;SDS011;29267;50.906;7.248;2022-07-23T09:48:16;15.50;;;4.57;;
43670;SDS011;29267;50.906;7.248;2022-07-23T09:50:43;7.57;;;4.00;;
43670;SDS011;29267;50.906;7.248;2022-07-23T09:53:10;7.38;;;3.97;;
43670;SDS011;29267;50.906;7.248;2022-07-23T09:55:56;5.80;;;3.78;;
43670;SDS011;29267;50.906;7.248;2022-07-23T09:58:25;7.70;;;3.75;;
43670;SDS011;29267;50.906;7.248;2022-07-23T10:00:54;5.18;;;3.25;;
43670;SDS011;29267;50.906;7.248;2022-07-23T10:03:20;5.90;;;3.60;;
43670;SDS011;29267;50.906;7.248;2022-07-23T10:05:48;6.78;;;3.45;;
43670;SDS011;29267;50.906;7.248;2022-07-23T10:08:15;8.57;;;3.30;;
43670;SDS011;29267;50.906;7.248;2022-07-23T10:10:43;8.32;;;3.95;;
43670;SDS011;29267;50.906;7.248;2022-07-23T10:13:11;6.75;;;4.25;;
43670;SDS011;29267;50.906;7.248;2022-07-23T10:15:37;10.45;;;3.33;;
43670;SDS011;29267;50.906;7.248;2022-07-23T10:18:05;6.28;;;3.28;;
43670;SDS011;29267;50.906;7.248;2022-07-23T10:20:31;5.78;;;3.42;;
43670;SDS011;29267;50.906;7.248;2022-07-23T10:23:04;8.30;;;4.38;;
43670;SDS011;29267;50.906;7.248;2022-07-23T10:26:33;5.95;;;3.45;;
43670;SDS011;29267;50.906;7.248;2022-07-23T10:36:54;6.32;;;3.30;;
43670;SDS011;29267;50.906;7.248;2022-07-23T10:39:44;9.68;;;3.50;;
43670;SDS011;29267;50.906;7.248;2022-07-23T10:42:11;8.52;;;3.72;;
43670;SDS011;29267;50.906;7.248;2022-07-23T10:44:44;4.75;;;2.30;;
43670;SDS011;29267;50.906;7.248;2022-07-23T10:47:12;5.00;;;2.70;;
43670;SDS011;29267;50.906;7.248;2022-07-23T10:50:40;6.00;;;3.20;;
43670;SDS011;29267;50.906;7.248;2022-07-23T10:53:17;6.50;;;3.05;;
43670;SDS011;29267;50.906;7.248;2022-07-23T10:55:44;7.45;;;2.90;;
43670;SDS011;29267;50.906;7.248;2022-07-23T10:58:10;4.85;;;2.67;;
43670;SDS011;29267;50.906;7.248;2022-07-23T11:00:36;6.30;;;3.42;;
43670;SDS011;29267;50.906;7.248;2022-07-23T11:03:03;5.57;;;3.28;;
43670;SDS011;29267;50.906;7.248;2022-07-23T11:05:43;5.57;;;2.90;;
43670;SDS011;29267;50.906;7.248;2022-07-23T11:32:06;8.68;;;2.65;;
43670;SDS011;29267;50.906;7.248;2022-07-23T11:34:43;2.67;;;2.15;;
43670;SDS011;29267;50.906;7.248;2022-07-23T11:37:11;4.07;;;2.60;;
43670;SDS011;29267;50.906;7.248;2022-07-23T11:39:53;7.90;;;2.60;;
43670;SDS011;29267;50.906;7.248;2022-07-23T11:42:20;7.53;;;2.50;;
43670;SDS011;29267;50.906;7.248;2022-07-23T11:44:46;6.57;;;3.40;;
43670;SDS011;29267;50.906;7.248;2022-07-23T11:47:13;4.75;;;2.88;;
43670;SDS011;29267;50.906;7.248;2022-07-23T11:49:39;6.63;;;2.95;;
43670;SDS011;29267;50.906;7.248;2022-07-23T11:52:24;3.80;;;2.40;;
43670;SDS011;29267;50.906;7.248;2022-07-23T11:57:16;6.53;;;2.60;;
43670;SDS011;29267;50.906;7.248;2022-07-23T11:59:43;4.85;;;2.97;;
43670;SDS011;29267;50.906;7.248;2022-07-23T12:02:10;5.03;;;3.30;;
43670;SDS011;29267;50.906;7.248;2022-07-23T12:04:46;4.78;;;2.72;;
43670;SDS011;29267;50.906;7.248;2022-07-23T12:10:16;3.85;;;2.83;;
43670;SDS011;29267;50.906;7.248;2022-07-23T12:12:50;3.92;;;2.50;;
43670;SDS011;29267;50.906;7.248;2022-07-23T12:15:19;6.32;;;3.15;;
43670;SDS011;29267;50.906;7.248;2022-07-23T12:18:07;3.88;;;2.30;;
43670;SDS011;29267;50.906;7.248;2022-07-23T12:20:38;4.30;;;2.30;;
43670;SDS011;29267;50.906;7.248;2022-07-23T12:23:07;5.60;;;2.90;;
43670;SDS011;29267;50.906;7.248;2022-07-23T12:25:36;2.42;;;2.20;;
43670;SDS011;29267;50.906;7.248;2022-07-23T12:33:12;4.18;;;2.90;;
43670;SDS011;29267;50.906;7.248;2022-07-23T12:35:44;4.15;;;2.47;;
43670;SDS011;29267;50.906;7.248;2022-07-23T12:38:12;3.08;;;2.55;;
43670;SDS011;29267;50.906;7.248;2022-07-23T12:43:07;4.32;;;2.83;;
43670;SDS011;29267;50.906;7.248;2022-07-23T12:45:41;3.78;;;3.20;;
43670;SDS011;29267;50.906;7.248;2022-07-23T12:48:17;4.00;;;3.17;;
43670;SDS011;29267;50.906;7.248;2022-07-23T12:50:49;7.55;;;3.25;;
43670;SDS011;29267;50.906;7.248;2022-07-23T12:55:48;3.83;;;3.20;;
43670;SDS011;29267;50.906;7.248;2022-07-23T12:58:17;6.70;;;3.60;;
43670;SDS011;29267;50.906;7.248;2022-07-23T13:00:51;5.57;;;4.10;;
43670;SDS011;29267;50.906;7.248;2022-07-23T13:03:31;6.38;;;4.53;;
43670;SDS011;29267;50.906;7.248;2022-07-23T13:06:00;3.95;;;3.20;;
43670;SDS011;29267;50.906;7.248;2022-07-23T13:08:28;4.50;;;3.50;;
43670;SDS011;29267;50.906;7.248;2022-07-23T13:10:55;9.93;;;3.90;;
43670;SDS011;29267;50.906;7.248;2022-07-23T13:13:22;5.63;;;3.90;;
43670;SDS011;29267;50.906;7.248;2022-07-23T13:15:50;9.05;;;4.32;;
43670;SDS011;29267;50.906;7.248;2022-07-23T13:18:17;6.53;;;4.75;;
43670;SDS011;29267;50.906;7.248;2022-07-23T13:20:43;6.47;;;4.05;;
43670;SDS011;29267;50.906;7.248;2022-07-23T13:23:10;5.07;;;4.10;;
43670;SDS011;29267;50.906;7.248;2022-07-23T13:25:35;6.95;;;4.55;;
43670;SDS011;29267;50.906;7.248;2022-07-23T13:28:01;7.65;;;4.72;;
43670;SDS011;29267;50.906;7.248;2022-07-23T13:30:27;5.72;;;4.43;;
43670;SDS011;29267;50.906;7.248;2022-07-23T13:32:53;5.63;;;4.47;;
43670;SDS011;29267;50.906;7.248;2022-07-23T13:35:18;13.73;;;6.47;;
43670;SDS011;29267;50.906;7.248;2022-07-23T13:37:44;6.70;;;4.75;;
43670;SDS011;29267;50.906;7.248;2022-07-23T13:40:10;18.42;;;5.22;;
43670;SDS011;29267;50.906;7.248;2022-07-23T13:42:36;8.77;;;5.38;;
43670;SDS011;29267;50.906;7.248;2022-07-23T13:45:03;7.50;;;5.22;;
43670;SDS011;29267;50.906;7.248;2022-07-23T13:47:30;8.98;;;4.82;;
43670;SDS011;29267;50.906;7.248;2022-07-23T13:49:55;10.20;;;4.60;;
43670;SDS011;29267;50.906;7.248;2022-07-23T13:52:21;7.43;;;4.80;;
43670;SDS011;29267;50.906;7.248;2022-07-23T13:54:47;7.95;;;5.70;;
43670;SDS011;29267;50.906;7.248;2022-07-23T13:57:13;9.55;;;4.90;;
43670;SDS011;29267;50.906;7.248;2022-07-23T13:59:38;7.53;;;4.55;;
43670;SDS011;29267;50.906;7.248;2022-07-23T14:02:04;11.75;;;4.38;;
43670;SDS011;29267;50.906;7.248;2022-07-23T14:04:31;5.95;;;4.72;;
43670;SDS011;29267;50.906;7.248;2022-07-23T14:06:56;7.07;;;4.10;;
43670;SDS011;29267;50.906;7.248;2022-07-23T14:09:22;9.18;;;4.10;;
43670;SDS011;29267;50.906;7.248;2022-07-23T14:11:48;5.57;;;4.25;;
43670;SDS011;29267;50.906;7.248;2022-07-23T14:14:15;6.60;;;4.50;;
43670;SDS011;29267;50.906;7.248;2022-07-23T14:16:42;6.85;;;4.38;;
43670;SDS011;29267;50.906;7.248;2022-07-23T14:19:08;6.55;;;4.25;;
43670;SDS011;29267;50.906;7.248;2022-07-23T14:21:33;9.55;;;4.30;;
43670;SDS011;29267;50.906;7.248;2022-07-23T14:23:59;6.93;;;3.88;;
43670;SDS011;29267;50.906;7.248;2022-07-23T14:26:25;8.82;;;4.03;;
43670;SDS011;29267;50.906;7.248;2022-07-23T14:28:51;7.05;;;4.00;;
43670;SDS011;29267;50.906;7.248;2022-07-23T14:31:16;5.65;;;3.33;;
43670;SDS011;29267;50.906;7.248;2022-07-23T14:33:42;7.93;;;3.75;;
43670;SDS011;29267;50.906;7.248;2022-07-23T14:36:07;12.07;;;4.93;;
43670;SDS011;29267;50.906;7.248;2022-07-23T14:38:33;4.97;;;3.47;;
43670;SDS011;29267;50.906;7.248;2022-07-23T14:40:59;10.48;;;4.18;;
43670;SDS011;29267;50.906;7.248;2022-07-23T14:43:24;7.20;;;4.18;;
43670;SDS011;29267;50.906;7.248;2022-07-23T14:45:50;8.13;;;4.78;;
43670;SDS011;29267;50.906;7.248;2022-07-23T14:48:15;7.55;;;4.53;;
43670;SDS011;29267;50.906;7.248;2022-07-23T14:50:41;6.00;;;4.40;;
43670;SDS011;29267;50.906;7.248;2022-07-23T14:53:07;7.10;;;4.60;;
43670;SDS011;29267;50.906;7.248;2022-07-23T14:55:32;6.38;;;4.22;;
43670;SDS011;29267;50.906;7.248;2022-07-23T14:57:59;7.35;;;4.85;;
43670;SDS011;29267;50.906;7.248;2022-07-23T15:00:25;7.53;;;4.47;;
43670;SDS011;29267;50.906;7.248;2022-07-23T15:02:51;7.93;;;4.10;;
43670;SDS011;29267;50.906;7.248;2022-07-23T15:05:18;9.60;;;4.35;;
43670;SDS011;29267;50.906;7.248;2022-07-23T15:07:44;7.20;;;4.22;;
43670;SDS011;29267;50.906;7.248;2022-07-23T15:10:09;6.88;;;3.80;;
43670;SDS011;29267;50.906;7.248;2022-07-23T15:12:35;9.27;;;4.13;;
43670;SDS011;29267;50.906;7.248;2022-07-23T15:15:01;8.88;;;3.95;;
43670;SDS011;29267;50.906;7.248;2022-07-23T15:17:26;7.18;;;4.43;;
43670;SDS011;29267;50.906;7.248;2022-07-23T15:19:52;6.68;;;4.13;;
43670;SDS011;29267;50.906;7.248;2022-07-23T15:22:18;5.57;;;4.90;;
43670;SDS011;29267;50.906;7.248;2022-07-23T15:24:43;6.78;;;4.03;;
43670;SDS011;29267;50.906;7.248;2022-07-23T15:27:09;5.82;;;4.50;;
43670;SDS011;29267;50.906;7.248;2022-07-23T15:29:35;8.00;;;4.18;;
43670;SDS011;29267;50.906;7.248;2022-07-23T15:32:01;6.53;;;4.22;;
43670;SDS011;29267;50.906;7.248;2022-07-23T15:34:28;7.00;;;4.45;;